Time;durP1;ratioP1;P1;durP2;ratioP2;P2;SDS_P1;SDS_P2;PMS_P1;PMS_P2;Temp;Humidity;BMP_temperature;BMP_pressure;BME280_temperature;BME280_humidity;BME280_pressure;Samples;Min_cycle;Max_cycle;Signal;HPM_P1;HPM_P2
2022/03/11 00:00:00;;;;;;;7.07;4.38;;;;;;;7.45;60.74;102057.47;5032578;27;101918;-49
2022/03/11 00:02:26;;;;;;;8.82;5.20;;;;;;;7.45;60.71;102063.72;5016081;27;102775;-49
2022/03/11 00:04:54;;;;;;;7.65;4.97;;;;;;;7.45;60.60;102063.72;5012407;28;104068;-49
2022/03/11 00:07:25;;;;;;;9.25;5.10;;;;;;;7.45;61.15;102062.91;5012439;28;102412;-49
2022/03/11 00:09:52;;;;;;;8.75;5.10;;;;;;;7.46;61.08;102051.00;4993670;28;102703;-49
2022/03/11 00:12:20;;;;;;;6.68;4.43;;;;;;;7.45;61.00;102046.66;4993422;28;102983;-49
2022/03/11 00:14:56;;;;;;;7.80;4.65;;;;;;;7.45;61.08;102042.06;4996884;28;103747;-50
2022/03/11 00:17:23;;;;;;;8.30;4.68;;;;;;;7.45;60.80;102050.19;4992969;28;101960;-50
2022/03/11 00:19:49;;;;;;;8.10;4.55;;;;;;;7.44;61.15;102040.41;4992949;28;102069;-49
2022/03/11 00:22:18;;;;;;;6.80;4.33;;;;;;;7.44;61.02;102045.00;4996890;28;102404;-49
2022/03/11 00:24:44;;;;;;;7.88;4.80;;;;;;;7.45;60.71;102046.66;5023631;28;103635;-50
2022/03/11 00:27:11;;;;;;;6.95;4.50;;;;;;;7.45;61.31;102035.81;4993036;28;102297;-50
2022/03/11 00:29:39;;;;;;;5.68;4.43;;;;;;;7.44;60.49;102040.41;5001616;28;102004;-49
2022/03/11 00:32:06;;;;;;;6.93;4.53;;;;;;;7.45;60.73;102033.09;5013668;28;102129;-49
2022/03/11 00:34:34;;;;;;;6.60;4.93;;;;;;;7.43;60.80;102022.50;5012369;28;104096;-49
2022/03/11 00:37:00;;;;;;;7.57;4.60;;;;;;;7.43;60.94;102022.50;5031168;27;102615;-49
2022/03/11 00:39:27;;;;;;;6.32;4.47;;;;;;;7.43;61.21;102022.50;5012310;28;101903;-49
2022/03/11 00:41:55;;;;;;;7.38;3.63;;;;;;;7.42;61.73;102015.41;5007145;28;102336;-49
2022/03/11 00:44:21;;;;;;;9.05;4.20;;;;;;;7.42;60.76;102023.53;5030583;27;103824;-49
2022/03/11 00:46:49;;;;;;;6.10;3.80;;;;;;;7.42;61.30;102020.00;5018425;28;102320;-50
2022/03/11 00:49:16;;;;;;;5.93;3.80;;;;;;;7.42;60.44;102023.53;5031615;27;102445;-50
2022/03/11 00:51:43;;;;;;;5.38;3.75;;;;;;;7.42;60.57;102025.41;5033785;28;102267;-49
2022/03/11 00:54:09;;;;;;;6.70;4.05;;;;;;;7.41;61.20;102018.34;4997704;27;104019;-49
2022/03/11 00:56:36;;;;;;;6.40;3.70;;;;;;;7.41;60.87;102021.88;5008407;28;101875;-49
2022/03/11 00:59:02;;;;;;;5.80;3.83;;;;;;;7.41;61.08;102018.34;5027084;28;102144;-49
2022/03/11 01:01:29;;;;;;;5.93;3.58;;;;;;;7.41;61.83;102023.75;5012215;27;102158;-50
2022/03/11 01:03:57;;;;;;;7.00;3.85;;;;;;;7.39;60.82;102018.56;4998092;28;103916;-49
2022/03/11 01:06:24;;;;;;;5.65;3.80;;;;;;;7.39;61.52;102010.44;5012572;28;102384;-49
2022/03/11 01:08:51;;;;;;;5.38;3.63;;;;;;;7.38;60.65;102013.34;5012284;28;102564;-49
2022/03/11 01:11:18;;;;;;;5.57;3.65;;;;;;;7.38;60.95;102013.34;5013466;28;102905;-55
2022/03/11 01:13:45;;;;;;;4.63;3.72;;;;;;;7.38;61.23;102014.19;5014031;28;103710;-49
2022/03/11 01:16:12;;;;;;;6.25;3.83;;;;;;;7.37;60.16;102023.38;5034144;27;102527;-49
2022/03/11 01:18:38;;;;;;;4.72;3.53;;;;;;;7.37;61.04;102009.81;5030321;28;102453;-49
2022/03/11 01:21:06;;;;;;;5.88;3.75;;;;;;;7.37;61.20;102006.28;5015323;28;102137;-49
2022/03/11 01:23:34;;;;;;;4.97;3.73;;;;;;;7.36;60.73;102016.28;5000262;28;103935;-49
2022/03/11 01:26:00;;;;;;;4.57;3.33;;;;;;;7.37;60.65;102007.13;4993740;28;101971;-49
2022/03/11 01:28:27;;;;;;;4.43;3.60;;;;;;;7.36;59.90;102005.47;4994537;28;102118;-49
2022/03/11 01:30:53;;;;;;;5.22;3.78;;;;;;;7.36;60.96;102019.00;5012625;28;102587;-49
2022/03/11 01:33:21;;;;;;;4.78;3.47;;;;;;;7.37;60.31;102011.69;4998448;28;104082;-50
2022/03/11 01:35:48;;;;;;;3.80;3.03;;;;;;;7.35;60.90;102009.19;4994469;28;102464;-49
2022/03/11 01:38:16;;;;;;;4.68;3.35;;;;;;;7.36;60.48;102010.88;5012068;28;102252;-49
2022/03/11 01:40:43;;;;;;;4.18;3.15;;;;;;;7.35;60.96;102009.19;4977525;28;102786;-49
2022/03/11 01:43:14;;;;;;;5.25;3.35;;;;;;;7.35;60.93;102011.91;4970622;28;103719;-50
2022/03/11 01:45:41;;;;;;;4.43;3.20;;;;;;;7.35;61.35;102009.19;4967737;28;104101;-49
2022/03/11 01:48:09;;;;;;;5.00;3.30;;;;;;;7.35;60.44;102020.03;4969473;28;102025;-50
2022/03/11 01:50:35;;;;;;;4.45;3.03;;;;;;;7.36;60.76;102018.19;4973134;28;102106;-49
2022/03/11 01:53:02;;;;;;;3.95;3.08;;;;;;;7.36;60.42;102010.88;4971901;28;104326;-49
2022/03/11 01:55:30;;;;;;;4.78;2.97;;;;;;;7.35;60.52;102017.31;4972562;28;102401;-49
2022/03/11 01:57:57;;;;;;;3.72;2.95;;;;;;;7.34;61.28;102002.13;4972176;28;102634;-49
2022/03/11 02:00:24;;;;;;;4.38;3.33;;;;;;;7.35;61.21;102011.06;4953794;28;102581;-50
2022/03/11 02:02:51;;;;;;;3.83;3.08;;;;;;;7.34;61.45;102012.97;4965443;28;104109;-49
2022/03/11 02:05:20;;;;;;;5.28;3.38;;;;;;;7.34;60.54;102001.31;4972361;28;102250;-49
2022/03/11 02:07:47;;;;;;;4.28;3.42;;;;;;;7.34;60.84;101999.41;4971358;28;102990;-49
2022/03/11 02:10:14;;;;;;;4.20;2.83;;;;;;;7.33;60.87;102008.59;4971722;28;102772;-49
2022/03/11 02:12:43;;;;;;;5.55;3.05;;;;;;;7.34;60.60;102004.84;4968712;28;103823;-49
2022/03/11 02:15:15;;;;;;;3.67;3.00;;;;;;;7.33;60.69;102005.88;4952651;28;102446;-50
2022/03/11 02:17:43;;;;;;;3.78;3.00;;;;;;;7.34;60.12;101998.59;4952002;28;102049;-49
2022/03/11 02:20:11;;;;;;;4.10;3.28;;;;;;;7.33;60.03;101999.66;4953711;28;102438;-49
2022/03/11 02:22:40;;;;;;;3.60;3.15;;;;;;;7.33;61.30;101996.94;4963172;28;103906;-49
2022/03/11 02:25:09;;;;;;;3.88;2.70;;;;;;;7.33;60.39;102005.88;4972457;28;102367;-49
2022/03/11 02:27:37;;;;;;;4.38;3.15;;;;;;;7.32;60.95;102004.25;4970745;28;101961;-49
2022/03/11 02:30:13;;;;;;;4.90;3.00;;;;;;;7.32;61.36;102004.25;4968625;28;102466;-50
2022/03/11 02:32:41;;;;;;;4.18;3.08;;;;;;;7.32;60.84;102009.66;4974202;28;103692;-49
2022/03/11 02:35:09;;;;;;;3.50;2.97;;;;;;;7.32;61.09;102003.38;4971553;28;102441;-49
2022/03/11 02:37:38;;;;;;;3.67;2.95;;;;;;;7.30;60.97;101998.19;4971878;28;102352;-49
2022/03/11 02:40:05;;;;;;;7.80;3.75;;;;;;;7.30;60.85;102000.91;5002423;28;102756;-49
2022/03/11 02:42:33;;;;;;;8.02;4.50;;;;;;;7.31;61.07;102005.25;5011164;28;102930;-49
2022/03/11 02:45:00;;;;;;;8.85;5.30;;;;;;;7.31;60.59;102001.72;5012185;28;102602;-49
2022/03/11 02:47:27;;;;;;;8.32;5.07;;;;;;;7.31;60.51;102002.56;5003573;28;102240;-50
2022/03/11 02:49:53;;;;;;;10.60;6.13;;;;;;;7.31;60.42;102002.56;4992408;28;102323;-49
2022/03/11 02:52:21;;;;;;;9.50;5.25;;;;;;;7.30;59.68;101995.50;4990885;28;103947;-49
2022/03/11 02:54:48;;;;;;;9.15;6.13;;;;;;;7.31;60.62;101997.13;4991552;28;101911;-50
2022/03/11 02:57:15;;;;;;;9.10;5.75;;;;;;;7.30;60.65;101992.78;5004042;28;101989;-50
2022/03/11 02:59:43;;;;;;;8.57;5.88;;;;;;;7.30;60.43;101998.19;5011495;28;102095;-49
2022/03/11 03:02:09;;;;;;;7.70;4.88;;;;;;;7.31;61.32;101997.13;5003322;28;103905;-49
2022/03/11 03:04:37;;;;;;;9.15;5.70;;;;;;;7.29;60.25;101996.56;5026424;27;102279;-49
2022/03/11 03:07:03;;;;;;;7.28;5.30;;;;;;;7.29;60.48;101991.13;5011050;28;102563;-49
2022/03/11 03:09:30;;;;;;;7.28;4.80;;;;;;;7.31;60.69;101997.13;5010546;28;102134;-49
2022/03/11 03:11:56;;;;;;;8.05;4.97;;;;;;;7.29;60.04;101985.72;5009689;28;103901;-49
2022/03/11 03:14:23;;;;;;;7.55;4.63;;;;;;;7.29;60.43;101988.44;5010615;28;102422;-49
2022/03/11 03:16:51;;;;;;;7.03;4.55;;;;;;;7.28;59.93;101984.03;4990934;28;102843;-49
2022/03/11 03:19:17;;;;;;;7.15;4.50;;;;;;;7.29;61.28;101991.13;4991947;28;102719;-49
2022/03/11 03:21:44;;;;;;;8.50;5.00;;;;;;;7.29;60.92;101993.84;4989903;28;103877;-49
2022/03/11 03:24:10;;;;;;;6.63;4.60;;;;;;;7.28;61.22;101986.75;5009206;28;104304;-49
2022/03/11 03:26:37;;;;;;;8.05;4.63;;;;;;;7.28;60.94;101992.16;5010691;28;102130;-49
2022/03/11 03:29:03;;;;;;;6.97;4.45;;;;;;;7.26;60.34;101996.97;5003258;28;102056;-49
2022/03/11 03:31:31;;;;;;;7.32;4.03;;;;;;;7.25;60.80;102000.75;5013571;28;104000;-50
2022/03/11 03:34:00;;;;;;;6.97;4.35;;;;;;;7.25;61.08;101999.88;5014369;28;101868;-50
2022/03/11 03:36:26;;;;;;;6.80;4.20;;;;;;;7.26;61.11;101998.88;5009373;28;102508;-49
2022/03/11 03:38:53;;;;;;;4.78;3.80;;;;;;;7.25;60.84;102006.16;5013550;28;102498;-49
2022/03/11 03:41:19;;;;;;;6.57;3.65;;;;;;;7.24;61.38;102007.19;5012100;28;103942;-49
2022/03/11 03:43:47;;;;;;;7.10;4.00;;;;;;;7.25;60.90;102017.00;5014070;28;101966;-49
2022/03/11 03:46:14;;;;;;;6.05;3.92;;;;;;;7.24;60.64;102012.59;5014186;28;102405;-49
2022/03/11 03:48:41;;;;;;;4.88;3.50;;;;;;;7.25;60.20;102016.13;5013545;28;102230;-49
2022/03/11 03:51:09;;;;;;;7.45;3.65;;;;;;;7.23;60.23;102017.19;5005254;28;103869;-50
2022/03/11 03:53:36;;;;;;;5.93;3.80;;;;;;;7.24;60.17;102012.59;5013824;28;102132;-49
2022/03/11 03:56:03;;;;;;;4.97;3.67;;;;;;;7.23;60.32;102005.53;5012966;28;102402;-49
2022/03/11 03:58:29;;;;;;;6.38;3.67;;;;;;;7.23;61.03;102000.94;4995377;28;102282;-49
2022/03/11 04:00:56;;;;;;;5.03;3.45;;;;;;;7.24;60.27;102009.91;4993695;28;104073;-49
2022/03/11 04:03:24;;;;;;;5.40;4.15;;;;;;;7.25;60.08;102014.28;4994004;28;101853;-49
2022/03/11 04:05:51;;;;;;;5.60;4.07;;;;;;;7.24;60.30;102009.91;4992193;28;102538;-50
2022/03/11 04:08:19;;;;;;;5.32;3.97;;;;;;;7.23;61.07;102013.66;4999720;28;102391;-49
2022/03/11 04:10:45;;;;;;;5.47;3.60;;;;;;;7.23;60.49;102010.94;5002839;28;103937;-49
2022/03/11 04:13:11;;;;;;;5.35;3.40;;;;;;;7.23;60.38;102019.06;5013395;28;101968;-49
2022/03/11 04:15:38;;;;;;;4.63;3.15;;;;;;;7.22;60.72;102009.28;4997105;28;102588;-49
2022/03/11 04:18:06;;;;;;;5.15;3.60;;;;;;;7.23;60.71;102010.94;4994720;28;102606;-49
2022/03/11 04:20:32;;;;;;;4.88;3.70;;;;;;;7.22;60.50;102012.00;4993369;28;103940;-50
2022/03/11 04:22:59;;;;;;;5.00;3.72;;;;;;;7.23;60.59;102021.78;5010195;28;102355;-50
2022/03/11 04:25:28;;;;;;;4.40;3.50;;;;;;;7.22;60.37;102020.13;5013178;28;101847;-49
2022/03/11 04:27:54;;;;;;;4.72;3.55;;;;;;;7.23;59.61;102019.06;5014351;28;102420;-49
2022/03/11 04:30:21;;;;;;;6.40;3.67;;;;;;;7.21;60.76;102018.44;5012883;28;103843;-49
2022/03/11 04:32:48;;;;;;;5.72;3.45;;;;;;;7.22;60.96;102020.13;5011562;28;102334;-49
2022/03/11 04:35:14;;;;;;;4.05;3.20;;;;;;;7.21;60.57;102019.31;5012066;28;102177;-49
2022/03/11 04:37:41;;;;;;;5.05;3.30;;;;;;;7.22;60.70;102012.84;5013648;28;102306;-50
2022/03/11 04:40:08;;;;;;;5.40;3.45;;;;;;;7.23;61.05;102022.59;5012251;28;104127;-50
2022/03/11 04:42:36;;;;;;;6.10;3.67;;;;;;;7.23;60.17;102010.94;5013178;28;102059;-50
2022/03/11 04:45:04;;;;;;;4.47;3.28;;;;;;;7.23;60.88;102016.38;5012072;28;102333;-50
2022/03/11 04:47:31;;;;;;;4.07;3.03;;;;;;;7.23;60.45;102021.78;5013622;28;102232;-49
2022/03/11 04:49:57;;;;;;;3.90;3.25;;;;;;;7.24;60.55;102023.44;5011575;28;104957;-49
2022/03/11 04:52:24;;;;;;;4.38;3.50;;;;;;;7.24;60.19;102023.44;5012175;28;102590;-49
2022/03/11 04:54:50;;;;;;;6.53;3.67;;;;;;;7.25;59.93;102019.69;4993003;28;102053;-50
2022/03/11 04:57:17;;;;;;;5.30;3.80;;;;;;;7.25;60.48;102025.13;5005547;28;102244;-49
2022/03/11 04:59:45;;;;;;;5.72;3.97;;;;;;;7.25;60.22;102024.25;5011315;28;103876;-49
2022/03/11 05:02:12;;;;;;;6.15;4.15;;;;;;;7.26;60.39;102025.94;5011466;28;102312;-49
2022/03/11 05:04:38;;;;;;;7.55;4.30;;;;;;;7.26;60.94;102025.94;5016875;28;102373;-49
2022/03/11 05:07:07;;;;;;;7.40;4.72;;;;;;;7.26;60.78;102021.34;5033434;27;102289;-50
2022/03/11 05:09:34;;;;;;;9.15;5.72;;;;;;;7.26;61.00;102025.94;5032362;27;103951;-50
2022/03/11 05:12:01;;;;;;;9.38;5.22;;;;;;;7.26;59.63;102032.19;5032857;27;102084;-49
2022/03/11 05:14:27;;;;;;;11.65;6.13;;;;;;;7.27;60.46;102028.41;5023817;28;102073;-49
2022/03/11 05:16:55;;;;;;;11.57;6.28;;;;;;;7.26;60.90;102032.19;4995390;28;102511;-50
2022/03/11 05:19:24;;;;;;;10.20;6.55;;;;;;;7.26;60.26;102024.06;4991905;28;103698;-49
2022/03/11 05:21:51;;;;;;;10.13;6.20;;;;;;;7.28;60.34;102021.94;5004582;28;102252;-49
2022/03/11 05:24:18;;;;;;;11.10;6.00;;;;;;;7.27;61.02;102014.88;5011932;28;102007;-49
2022/03/11 05:26:46;;;;;;;9.98;6.40;;;;;;;7.28;60.22;102013.00;5012438;28;102260;-49
2022/03/11 05:29:12;;;;;;;13.63;6.57;;;;;;;7.28;60.75;102019.25;5011460;28;103902;-49
2022/03/11 05:31:45;;;;;;;9.73;6.13;;;;;;;7.29;60.63;102014.69;5012154;28;101920;-50
2022/03/11 05:34:13;;;;;;;11.88;6.85;;;;;;;7.27;59.97;102017.59;5001507;28;102626;-49
2022/03/11 05:36:40;;;;;;;12.95;7.35;;;;;;;7.28;60.27;102013.81;5020419;28;102463;-50
2022/03/11 05:39:06;;;;;;;13.30;7.15;;;;;;;7.28;60.20;102013.81;4994112;28;104915;-50
2022/03/11 05:41:33;;;;;;;10.98;6.97;;;;;;;7.29;60.74;102015.50;4995867;28;102203;-50
2022/03/11 05:43:59;;;;;;;12.70;7.47;;;;;;;7.28;60.90;102013.81;5006421;28;102389;-49
2022/03/11 05:46:25;;;;;;;10.65;7.05;;;;;;;7.29;61.07;102010.09;5008781;28;102176;-49
2022/03/11 05:48:52;;;;;;;11.15;6.80;;;;;;;7.29;60.47;102015.50;4996250;28;103925;-50
2022/03/11 05:51:20;;;;;;;14.43;7.40;;;;;;;7.29;60.99;102014.69;5007196;28;101950;-50
2022/03/11 05:53:47;;;;;;;11.18;6.85;;;;;;;7.28;60.14;102013.81;5007614;28;102615;-49
2022/03/11 05:56:13;;;;;;;10.15;6.45;;;;;;;7.29;59.86;102020.91;5009593;28;102010;-50
2022/03/11 05:58:40;;;;;;;11.15;7.22;;;;;;;7.29;60.73;102015.50;5005419;28;103956;-50
2022/03/11 06:01:07;;;;;;;12.40;7.75;;;;;;;7.29;60.34;102009.25;5003825;28;102531;-49
2022/03/11 06:03:34;;;;;;;15.10;7.68;;;;;;;7.29;60.89;102009.25;4996700;28;101971;-49
2022/03/11 06:06:00;;;;;;;9.40;6.75;;;;;;;7.29;59.99;102012.78;5000019;28;102929;-49
2022/03/11 06:08:30;;;;;;;9.13;6.20;;;;;;;7.28;60.61;102013.81;5008326;28;104141;-50
2022/03/11 06:10:57;;;;;;;11.07;6.95;;;;;;;7.28;61.04;102008.41;5004802;28;102645;-49
2022/03/11 06:13:23;;;;;;;9.73;6.28;;;;;;;7.28;60.67;102013.00;4993696;28;102252;-49
2022/03/11 06:15:50;;;;;;;10.90;7.13;;;;;;;7.28;60.49;102013.81;5004101;28;102331;-49
2022/03/11 06:18:18;;;;;;;10.73;6.93;;;;;;;7.30;60.50;102025.28;5010076;28;103903;-49
2022/03/11 06:20:45;;;;;;;10.13;6.13;;;;;;;7.30;61.13;102016.31;5011576;28;102388;-49
2022/03/11 06:23:11;;;;;;;10.82;6.95;;;;;;;7.31;60.38;102007.97;5010686;28;102314;-49
2022/03/11 06:25:39;;;;;;;9.88;6.35;;;;;;;7.31;60.25;102004.44;5012265;28;102475;-49
2022/03/11 06:28:05;;;;;;;10.95;6.25;;;;;;;7.32;60.10;102003.38;5010198;28;103960;-50
2022/03/11 06:30:32;;;;;;;9.90;5.97;;;;;;;7.31;60.44;102005.25;5010987;28;102349;-49
2022/03/11 06:32:58;;;;;;;8.75;5.30;;;;;;;7.32;60.79;102003.38;5010496;28;102512;-49
2022/03/11 06:35:25;;;;;;;8.55;5.30;;;;;;;7.30;60.43;102000.91;5009627;28;102728;-49
2022/03/11 06:37:52;;;;;;;9.73;6.40;;;;;;;7.31;60.51;101997.13;5010852;28;105162;-49
2022/03/11 06:40:19;;;;;;;9.70;5.82;;;;;;;7.31;60.50;101991.72;5011244;28;102690;-50
2022/03/11 06:42:48;;;;;;;9.60;5.72;;;;;;;7.31;60.75;101997.13;5009938;28;102146;-49
2022/03/11 06:45:15;;;;;;;;;;;;;;;7.31;60.25;102001.72;4995707;28;102178;-49
2022/03/11 06:47:42;;;;;;;10.52;5.80;;;;;;;7.30;60.16;101995.50;5005876;28;104070;-49
2022/03/11 06:50:09;;;;;;;10.00;5.22;;;;;;;7.32;60.77;101992.56;5011281;28;102055;-49
2022/03/11 06:52:36;;;;;;;9.15;5.85;;;;;;;7.30;60.46;101995.50;5000439;28;102119;-49
2022/03/11 06:55:03;;;;;;;9.23;5.20;;;;;;;7.29;59.79;101996.56;5006776;28;102777;-49
2022/03/11 06:57:31;;;;;;;7.90;5.03;;;;;;;7.30;59.99;101995.50;5001470;28;103959;-50
2022/03/11 06:59:59;;;;;;;7.20;5.25;;;;;;;7.30;60.31;102000.91;5007784;28;102316;-50
2022/03/11 07:02:26;;;;;;;13.15;5.28;;;;;;;7.30;61.15;101998.19;5005065;28;102627;-49
2022/03/11 07:04:53;;;;;;;10.05;4.90;;;;;;;7.29;60.34;101996.56;5017664;28;102353;-51
2022/03/11 07:07:19;;;;;;;13.00;4.55;;;;;;;7.29;61.04;102004.66;5004145;28;103893;-49
2022/03/11 07:09:46;;;;;;;7.45;4.95;;;;;;;7.29;60.05;101993.84;4993598;28;102560;-50
2022/03/11 07:12:13;;;;;;;10.50;5.15;;;;;;;7.30;60.41;101994.66;4995695;28;102222;-49
2022/03/11 07:15:01;;;;;;;11.40;4.93;;;;;;;7.29;60.14;101999.25;5019749;28;102251;-49
2022/03/11 07:17:28;;;;;;;8.27;5.20;;;;;;;7.29;60.39;102001.13;5030134;28;103954;-49
2022/03/11 07:19:54;;;;;;;7.80;4.97;;;;;;;7.28;60.31;101989.44;4995257;28;102379;-50
2022/03/11 07:22:22;;;;;;;7.25;5.10;;;;;;;7.28;60.54;101997.56;5009296;28;102582;-50
2022/03/11 07:24:48;;;;;;;5.97;4.60;;;;;;;7.29;60.25;101998.44;5007719;28;102335;-49
2022/03/11 07:27:15;;;;;;;8.32;4.63;;;;;;;7.28;59.83;102000.28;5009187;28;103920;-49
2022/03/11 07:29:42;;;;;;;7.78;5.07;;;;;;;7.28;60.67;101991.34;5004633;28;102043;-51
2022/03/11 07:32:12;;;;;;;7.47;4.47;;;;;;;7.29;59.77;101995.72;5004438;28;102718;-49
2022/03/11 07:34:38;;;;;;;7.85;4.45;;;;;;;7.27;60.08;101990.50;5002983;28;102578;-49
2022/03/11 07:37:06;;;;;;;7.72;4.68;;;;;;;7.27;60.64;101989.69;5006478;28;103953;-49
2022/03/11 07:39:33;;;;;;;7.25;4.50;;;;;;;7.27;59.90;101985.09;5009180;28;102561;-49
2022/03/11 07:41:59;;;;;;;6.50;4.60;;;;;;;7.29;60.38;101993.00;5008951;28;102492;-49
2022/03/11 07:44:26;;;;;;;7.07;4.70;;;;;;;7.26;61.09;101994.28;5010853;28;102258;-49
2022/03/11 07:46:52;;;;;;;9.75;5.65;;;;;;;7.27;60.12;101989.69;5008416;28;103893;-49
2022/03/11 07:49:22;;;;;;;6.82;4.75;;;;;;;7.27;60.06;101989.69;5008011;28;102405;-49
2022/03/11 07:51:48;;;;;;;6.40;4.55;;;;;;;7.26;60.00;101994.28;5004920;28;102278;-49
2022/03/11 07:54:15;;;;;;;10.43;4.40;;;;;;;7.25;60.08;101976.38;4996355;28;102164;-53
2022/03/11 07:56:42;;;;;;;8.32;5.20;;;;;;;7.26;60.62;101982.63;5007725;28;103866;-49
2022/03/11 07:59:08;;;;;;;7.72;4.68;;;;;;;7.26;60.40;101983.44;5008271;28;102625;-49
2022/03/11 08:01:35;;;;;;;10.90;4.72;;;;;;;7.26;60.70;101983.44;4991175;28;102687;-49
2022/03/11 08:04:03;;;;;;;7.22;4.72;;;;;;;7.26;60.31;101982.63;5008032;28;102709;-50
2022/03/11 08:06:31;;;;;;;9.10;5.27;;;;;;;7.25;60.21;101981.78;4999435;28;103997;-49
2022/03/11 08:08:58;;;;;;;8.32;5.40;;;;;;;7.25;61.33;101976.38;4999102;28;101890;-49
2022/03/11 08:11:24;;;;;;;8.07;5.43;;;;;;;7.25;61.26;101986.34;5010915;28;102035;-49
2022/03/11 08:13:51;;;;;;;7.82;5.30;;;;;;;7.25;60.75;101987.19;5015995;28;102225;-49
2022/03/11 08:16:17;;;;;;;6.43;4.82;;;;;;;7.25;60.41;101980.94;5011560;28;103769;-50
2022/03/11 08:18:45;;;;;;;9.20;5.03;;;;;;;7.24;60.87;101985.53;5012318;28;102038;-49
2022/03/11 08:21:14;;;;;;;6.43;4.65;;;;;;;7.23;60.37;101984.69;5013416;28;102121;-49
2022/03/11 08:23:42;;;;;;;7.38;5.07;;;;;;;7.22;60.77;101972.22;5011778;28;102471;-49
2022/03/11 08:26:10;;;;;;;9.33;5.63;;;;;;;7.23;60.82;101983.88;5012325;28;104061;-49
2022/03/11 08:28:37;;;;;;;6.53;4.63;;;;;;;7.22;60.51;101977.63;5013414;28;101955;-49
2022/03/11 08:31:04;;;;;;;8.10;4.65;;;;;;;7.22;60.79;101990.34;5017752;28;102598;-49
2022/03/11 08:33:34;;;;;;;8.02;4.70;;;;;;;7.20;60.90;101974.31;5003141;28;103928;-49
2022/03/11 08:36:00;;;;;;;8.23;4.60;;;;;;;7.20;60.48;101973.47;5012920;28;103589;-49
2022/03/11 08:38:26;;;;;;;7.85;4.68;;;;;;;7.21;59.75;101970.56;5014127;28;102623;-49
2022/03/11 08:40:55;;;;;;;6.55;4.38;;;;;;;7.20;60.74;101970.75;5013239;28;102747;-49
2022/03/11 08:43:22;;;;;;;6.05;4.40;;;;;;;7.20;59.90;101978.88;5013015;28;102732;-49
2022/03/11 08:45:49;;;;;;;7.18;4.55;;;;;;;7.19;60.71;101975.34;5000346;28;103915;-50
2022/03/11 08:48:15;;;;;;;5.70;4.47;;;;;;;7.19;60.68;101972.66;4995168;28;101945;-49
2022/03/11 08:50:41;;;;;;;6.90;4.47;;;;;;;7.19;60.68;101975.34;5007273;28;102748;-49
2022/03/11 08:53:08;;;;;;;6.50;4.80;;;;;;;7.21;60.42;101970.56;5014285;28;102694;-49
2022/03/11 08:55:35;;;;;;;6.00;3.72;;;;;;;7.20;60.82;101968.06;5011885;28;103895;-49
2022/03/11 08:58:03;;;;;;;6.55;4.63;;;;;;;7.18;60.71;101971.00;5014416;28;101940;-49
2022/03/11 09:00:29;;;;;;;7.18;4.57;;;;;;;7.18;60.23;101973.69;4997500;28;102039;-49
2022/03/11 09:02:56;;;;;;;6.90;4.60;;;;;;;7.18;60.03;101976.41;5005263;28;102245;-49
2022/03/11 09:05:23;;;;;;;7.75;4.63;;;;;;;7.19;61.21;101979.94;5006578;28;103751;-49
2022/03/11 09:07:51;;;;;;;5.93;4.28;;;;;;;7.18;60.78;101972.88;5012569;28;104255;-49
2022/03/11 09:10:19;;;;;;;;;;;;;;;7.18;60.45;101978.28;5011843;28;102711;-53
2022/03/11 09:12:47;;;;;;;5.85;3.78;;;;;;;7.19;60.67;101982.66;5020909;27;103624;-50
2022/03/11 09:15:15;;;;;;;7.40;4.72;;;;;;;7.10;59.66;101978.53;5029210;27;104007;-50
2022/03/11 09:17:45;;;;;;;11.43;4.88;;;;;;;7.08;60.47;101986.88;5006675;28;102376;-50
2022/03/11 09:20:13;;;;;;;9.15;4.75;;;;;;;7.10;59.70;101978.53;5011481;28;102543;-50
2022/03/11 09:22:43;;;;;;;7.95;4.65;;;;;;;7.11;59.60;101975.63;5012796;28;102718;-49
2022/03/11 09:25:11;;;;;;;10.50;4.53;;;;;;;7.12;60.15;101979.16;5011717;28;103937;-50
2022/03/11 09:27:39;;;;;;;6.80;4.40;;;;;;;7.12;60.41;101987.28;5012113;28;102426;-50
2022/03/11 09:30:08;;;;;;;7.53;4.82;;;;;;;7.12;60.23;101981.88;5011858;28;101968;-50
2022/03/11 09:32:39;;;;;;;8.20;4.77;;;;;;;7.11;59.90;101985.63;5012894;28;102402;-50
2022/03/11 09:35:07;;;;;;;8.02;4.65;;;;;;;7.12;59.42;101987.28;5011328;28;103951;-50
2022/03/11 09:37:34;;;;;;;8.00;4.03;;;;;;;7.12;60.41;101987.28;5012028;28;102035;-50
2022/03/11 09:40:03;;;;;;;5.82;4.20;;;;;;;7.11;59.87;101975.63;4999647;28;102585;-49
2022/03/11 09:42:30;;;;;;;5.63;4.13;;;;;;;7.12;60.07;101984.56;5012847;28;102402;-49
2022/03/11 09:44:57;;;;;;;6.13;4.32;;;;;;;7.13;59.91;101983.50;5011057;28;103938;-50
2022/03/11 09:47:24;;;;;;;8.68;4.53;;;;;;;7.12;59.77;101982.69;5011844;28;102642;-50
2022/03/11 09:49:52;;;;;;;7.45;3.97;;;;;;;7.11;60.03;101981.03;5011136;28;101938;-49
2022/03/11 09:52:23;;;;;;;6.23;3.80;;;;;;;7.11;60.51;101986.44;5012483;28;102232;-50
2022/03/11 09:54:50;;;;;;;6.18;4.30;;;;;;;7.11;60.60;101977.50;5010738;28;103895;-50
2022/03/11 09:57:18;;;;;;;5.22;3.60;;;;;;;7.12;60.96;101992.69;5011269;28;101960;-50
2022/03/11 09:59:45;;;;;;;5.60;4.70;;;;;;;7.12;60.50;101973.75;5011577;28;102248;-50
2022/03/11 10:02:13;;;;;;;6.03;4.20;;;;;;;7.11;60.01;101988.34;5012143;28;102450;-50
2022/03/11 10:04:48;;;;;;;6.65;4.38;;;;;;;7.10;60.29;101979.34;5010239;28;103897;-50
2022/03/11 10:07:24;;;;;;;5.45;4.05;;;;;;;7.11;60.42;101969.38;5011836;28;101972;-50
2022/03/11 10:09:52;;;;;;;9.88;3.75;;;;;;;7.11;60.48;101963.97;5010653;28;102420;-50
2022/03/11 10:12:21;;;;;;;7.00;3.92;;;;;;;7.11;60.02;101974.78;5012571;28;102253;-50
2022/03/11 10:14:55;;;;;;;6.82;3.97;;;;;;;7.11;60.04;101969.38;5010655;28;103935;-50
2022/03/11 10:17:23;;;;;;;7.53;4.18;;;;;;;7.11;60.13;101969.38;5012163;28;102261;-50
2022/03/11 10:19:55;;;;;;;7.07;3.97;;;;;;;7.10;60.83;101973.13;5011344;28;102176;-50
2022/03/11 10:22:28;;;;;;;5.95;4.10;;;;;;;7.11;60.23;101977.50;5012325;28;102556;-50
2022/03/11 10:24:55;;;;;;;7.35;4.65;;;;;;;7.11;60.36;101974.78;5010907;28;103065;-50
2022/03/11 10:27:24;;;;;;;5.93;4.13;;;;;;;7.10;60.27;101973.13;5011452;28;102177;-50
2022/03/11 10:29:55;;;;;;;7.20;4.13;;;;;;;7.10;60.29;101968.53;5011032;28;101943;-49
2022/03/11 10:32:26;;;;;;;6.32;4.28;;;;;;;7.10;60.20;101967.69;5011642;28;102100;-49
2022/03/11 10:34:53;;;;;;;4.47;3.15;;;;;;;7.11;60.07;101974.78;5009922;28;102894;-50
2022/03/11 10:37:26;;;;;;;5.38;3.60;;;;;;;7.09;59.85;101972.28;5010913;28;102432;-50
2022/03/11 10:39:53;;;;;;;4.68;3.50;;;;;;;7.10;60.15;101973.13;5010568;28;102275;-50
2022/03/11 10:42:21;;;;;;;8.13;4.15;;;;;;;7.09;60.09;101976.88;5007255;28;102598;-50
2022/03/11 10:44:57;;;;;;;4.10;3.33;;;;;;;7.09;60.06;101977.69;5009490;28;104082;-50
2022/03/11 10:47:26;;;;;;;5.55;3.95;;;;;;;7.10;60.12;101981.22;5007365;28;102057;-49
2022/03/11 10:49:55;;;;;;;5.70;4.18;;;;;;;7.10;60.70;101970.41;5010069;28;102049;-50
2022/03/11 10:52:31;;;;;;;6.43;4.00;;;;;;;7.09;59.59;101971.47;5004058;28;102204;-49
2022/03/11 10:54:59;;;;;;;4.72;3.63;;;;;;;7.08;60.28;101959.81;5009467;28;103082;-50
2022/03/11 10:57:36;;;;;;;8.20;3.97;;;;;;;7.10;60.35;101965.81;5010813;28;102102;-50
2022/03/11 11:00:23;;;;;;;7.68;4.32;;;;;;;7.09;60.47;101966.06;5009732;28;102229;-49
2022/03/11 11:02:51;;;;;;;6.72;3.95;;;;;;;7.09;60.44;101966.06;5002243;28;104105;-50
2022/03/11 11:05:19;;;;;;;4.70;3.63;;;;;;;7.08;60.23;101969.81;5000601;28;103948;-49
2022/03/11 11:07:48;;;;;;;4.57;3.63;;;;;;;7.08;59.89;101964.41;5005127;28;102826;-50
2022/03/11 11:10:17;;;;;;;5.80;4.05;;;;;;;7.08;59.73;101976.06;5008009;28;102035;-50
2022/03/11 11:12:44;;;;;;;3.40;2.87;;;;;;;7.08;59.65;101969.81;5000424;28;102309;-50
2022/03/11 11:15:11;;;;;;;4.50;3.58;;;;;;;7.08;60.82;101969.81;5008176;28;104104;-50
2022/03/11 11:17:40;;;;;;;4.75;3.67;;;;;;;7.09;60.15;101974.16;5008385;28;102526;-50
2022/03/11 11:20:17;;;;;;;4.65;3.70;;;;;;;7.07;59.98;101974.41;5006245;28;103800;-50
2022/03/11 11:22:45;;;;;;;4.97;3.63;;;;;;;7.08;60.10;101964.41;4994626;28;102196;-50
2022/03/11 11:25:16;;;;;;;5.18;3.63;;;;;;;7.08;59.58;101975.22;4991829;28;104142;-50